sensor_id;sensor_type;location;lat;lon;timestamp;pressure;altitude;pressure_sealevel;temperature;humidity
3544;BME280;1786;52.870;9.578;2023-08-08T00:00:54;100140.56;;;19.69;57.97
3544;BME280;1786;52.870;9.578;2023-08-08T00:03:21;100153.13;;;19.84;57.77
3544;BME280;1786;52.870;9.578;2023-08-08T00:05:48;100146.94;;;19.76;58.44
3544;BME280;1786;52.870;9.578;2023-08-08T00:08:14;100142.22;;;19.61;58.64
3544;BME280;1786;52.870;9.578;2023-08-08T00:10:41;100137.53;;;19.88;57.88
3544;BME280;1786;52.870;9.578;2023-08-08T00:13:08;100134.22;;;19.86;57.98
3544;BME280;1786;52.870;9.578;2023-08-08T00:15:34;100132.69;;;19.75;59.02
3544;BME280;1786;52.870;9.578;2023-08-08T00:18:02;100134.03;;;19.79;58.91
3544;BME280;1786;52.870;9.578;2023-08-08T00:20:29;100131.34;;;20.04;57.83
3544;BME280;1786;52.870;9.578;2023-08-08T00:22:56;100132.00;;;19.40;60.08
3544;BME280;1786;52.870;9.578;2023-08-08T00:25:22;100137.22;;;19.91;59.09
3544;BME280;1786;52.870;9.578;2023-08-08T00:27:50;100132.19;;;19.72;59.57
3544;BME280;1786;52.870;9.578;2023-08-08T00:30:17;100134.72;;;19.73;59.43
3544;BME280;1786;52.870;9.578;2023-08-08T00:32:43;100137.22;;;19.91;59.21
3544;BME280;1786;52.870;9.578;2023-08-08T00:35:10;100127.28;;;20.08;58.55
3544;BME280;1786;52.870;9.578;2023-08-08T00:37:37;100125.31;;;19.85;59.12
3544;BME280;1786;52.870;9.578;2023-08-08T00:40:04;100113.41;;;19.96;59.17
3544;BME280;1786;52.870;9.578;2023-08-08T00:42:31;100119.63;;;19.80;59.83
3544;BME280;1786;52.870;9.578;2023-08-08T00:44:58;100126.66;;;19.81;59.52
3544;BME280;1786;52.870;9.578;2023-08-08T00:47:31;100126.19;;;20.50;58.29
3544;BME280;1786;52.870;9.578;2023-08-08T00:49:58;100121.13;;;19.91;59.65
3544;BME280;1786;52.870;9.578;2023-08-08T00:52:26;100117.88;;;20.20;58.91
3544;BME280;1786;52.870;9.578;2023-08-08T00:54:54;100111.81;;;20.35;58.46
3544;BME280;1786;52.870;9.578;2023-08-08T00:57:21;100108.34;;;20.09;59.10
3544;BME280;1786;52.870;9.578;2023-08-08T00:59:48;100108.38;;;19.93;59.62
3544;BME280;1786;52.870;9.578;2023-08-08T01:02:15;100112.91;;;19.84;60.01
3544;BME280;1786;52.870;9.578;2023-08-08T01:04:42;100120.72;;;20.27;58.84
3544;BME280;1786;52.870;9.578;2023-08-08T01:07:33;100116.91;;;20.05;59.07
3544;BME280;1786;52.870;9.578;2023-08-08T01:10:17;100113.34;;;20.21;59.17
3544;BME280;1786;52.870;9.578;2023-08-08T01:12:51;100123.28;;;19.96;59.79
3544;BME280;1786;52.870;9.578;2023-08-08T01:15:19;100117.97;;;20.51;58.06
3544;BME280;1786;52.870;9.578;2023-08-08T01:17:47;100118.44;;;20.71;58.14
3544;BME280;1786;52.870;9.578;2023-08-08T01:20:14;100112.78;;;20.50;58.19
3544;BME280;1786;52.870;9.578;2023-08-08T01:23:14;100110.44;;;20.47;58.12
3544;BME280;1786;52.870;9.578;2023-08-08T01:25:43;100102.78;;;20.27;58.62
3544;BME280;1786;52.870;9.578;2023-08-08T01:28:11;100107.41;;;20.50;58.02
3544;BME280;1786;52.870;9.578;2023-08-08T01:30:38;100094.34;;;20.47;58.52
3544;BME280;1786;52.870;9.578;2023-08-08T01:33:05;100100.84;;;20.61;57.94
3544;BME280;1786;52.870;9.578;2023-08-08T01:35:37;100102.75;;;20.36;58.36
3544;BME280;1786;52.870;9.578;2023-08-08T01:38:51;100108.94;;;20.92;57.11
3544;BME280;1786;52.870;9.578;2023-08-08T01:40:59;100107.69;;;20.71;57.97
3544;BME280;1786;52.870;9.578;2023-08-08T01:43:27;100095.38;;;20.38;58.70
3544;BME280;1786;52.870;9.578;2023-08-08T01:45:55;100109.22;;;20.66;58.04
3544;BME280;1786;52.870;9.578;2023-08-08T01:48:22;100103.19;;;20.64;58.14
3544;BME280;1786;52.870;9.578;2023-08-08T01:50:49;100104.25;;;20.86;57.96
3544;BME280;1786;52.870;9.578;2023-08-08T01:53:16;100104.25;;;20.55;58.34
3544;BME280;1786;52.870;9.578;2023-08-08T01:55:43;100100.00;;;20.60;58.54
3544;BME280;1786;52.870;9.578;2023-08-08T01:58:11;100094.66;;;20.60;58.23
3544;BME280;1786;52.870;9.578;2023-08-08T02:00:37;100093.72;;;20.76;57.90
3544;BME280;1786;52.870;9.578;2023-08-08T02:03:04;100091.00;;;20.45;59.20
3544;BME280;1786;52.870;9.578;2023-08-08T02:05:31;100092.34;;;20.41;59.30
3544;BME280;1786;52.870;9.578;2023-08-08T02:07:58;100078.19;;;20.07;59.85
3544;BME280;1786;52.870;9.578;2023-08-08T02:10:25;100086.72;;;20.19;59.90
3544;BME280;1786;52.870;9.578;2023-08-08T02:12:52;100084.88;;;20.67;58.66
3544;BME280;1786;52.870;9.578;2023-08-08T02:15:19;100077.97;;;20.73;58.57
3544;BME280;1786;52.870;9.578;2023-08-08T02:17:46;100074.50;;;20.08;60.37
3544;BME280;1786;52.870;9.578;2023-08-08T02:20:13;100075.69;;;20.06;60.54
3544;BME280;1786;52.870;9.578;2023-08-08T02:22:40;100081.22;;;20.04;60.88
3544;BME280;1786;52.870;9.578;2023-08-08T02:25:08;100071.72;;;20.33;60.07
3544;BME280;1786;52.870;9.578;2023-08-08T02:27:35;100067.66;;;20.45;59.72
3544;BME280;1786;52.870;9.578;2023-08-08T02:30:02;100072.84;;;20.55;59.25
3544;BME280;1786;52.870;9.578;2023-08-08T02:32:29;100080.84;;;20.71;58.92
3544;BME280;1786;52.870;9.578;2023-08-08T02:34:56;100070.31;;;20.62;59.57
3544;BME280;1786;52.870;9.578;2023-08-08T02:37:23;100070.84;;;20.57;59.35
3544;BME280;1786;52.870;9.578;2023-08-08T02:39:50;100067.97;;;20.59;59.88
3544;BME280;1786;52.870;9.578;2023-08-08T02:42:17;100071.66;;;20.89;58.82
3544;BME280;1786;52.870;9.578;2023-08-08T02:44:44;100066.75;;;20.22;60.83
3544;BME280;1786;52.870;9.578;2023-08-08T02:47:12;100071.84;;;20.56;59.69
3544;BME280;1786;52.870;9.578;2023-08-08T02:49:40;100073.09;;;20.77;59.34
3544;BME280;1786;52.870;9.578;2023-08-08T02:52:07;100069.59;;;20.68;59.88
3544;BME280;1786;52.870;9.578;2023-08-08T02:54:35;100070.31;;;20.62;59.91
3544;BME280;1786;52.870;9.578;2023-08-08T02:57:01;100064.03;;;21.01;59.33
3544;BME280;1786;52.870;9.578;2023-08-08T02:59:28;100063.44;;;21.45;57.91
3544;BME280;1786;52.870;9.578;2023-08-08T03:01:56;100059.41;;;21.17;58.88
3544;BME280;1786;52.870;9.578;2023-08-08T03:04:23;100064.09;;;20.92;59.23
3544;BME280;1786;52.870;9.578;2023-08-08T03:06:50;100064.66;;;21.11;58.42
3544;BME280;1786;52.870;9.578;2023-08-08T03:09:17;100061.63;;;20.83;59.81
3544;BME280;1786;52.870;9.578;2023-08-08T03:11:44;100056.81;;;21.01;59.35
3544;BME280;1786;52.870;9.578;2023-08-08T03:14:14;100059.38;;;20.71;60.02
3544;BME280;1786;52.870;9.578;2023-08-08T03:16:41;100048.69;;;20.55;60.31
3544;BME280;1786;52.870;9.578;2023-08-08T03:19:10;100047.19;;;20.84;60.34
3544;BME280;1786;52.870;9.578;2023-08-08T03:21:37;100050.69;;;20.92;59.49
3544;BME280;1786;52.870;9.578;2023-08-08T03:24:05;100044.72;;;21.05;59.42
3544;BME280;1786;52.870;9.578;2023-08-08T03:26:31;100036.00;;;21.49;58.69
3544;BME280;1786;52.870;9.578;2023-08-08T03:28:58;100033.66;;;21.23;59.37
3544;BME280;1786;52.870;9.578;2023-08-08T03:31:34;100025.00;;;20.90;59.80
3544;BME280;1786;52.870;9.578;2023-08-08T03:34:03;100029.84;;;20.63;60.73
3544;BME280;1786;52.870;9.578;2023-08-08T03:36:32;100027.16;;;20.71;60.94
3544;BME280;1786;52.870;9.578;2023-08-08T03:38:59;100025.44;;;21.25;59.46
3544;BME280;1786;52.870;9.578;2023-08-08T03:41:26;100018.75;;;21.21;59.45
3544;BME280;1786;52.870;9.578;2023-08-08T03:43:53;100025.63;;;21.00;60.52
3544;BME280;1786;52.870;9.578;2023-08-08T03:46:20;100033.88;;;21.36;59.38
3544;BME280;1786;52.870;9.578;2023-08-08T03:48:47;100027.75;;;21.28;59.78
3544;BME280;1786;52.870;9.578;2023-08-08T03:51:16;100027.59;;;21.29;59.35
3544;BME280;1786;52.870;9.578;2023-08-08T03:53:43;100031.75;;;21.09;60.75
3544;BME280;1786;52.870;9.578;2023-08-08T03:56:11;100026.63;;;21.45;59.13
3544;BME280;1786;52.870;9.578;2023-08-08T03:58:38;100028.81;;;21.65;58.91
3544;BME280;1786;52.870;9.578;2023-08-08T04:01:05;100023.22;;;21.51;58.82
3544;BME280;1786;52.870;9.578;2023-08-08T04:03:32;100015.81;;;21.53;59.24
3544;BME280;1786;52.870;9.578;2023-08-08T04:05:59;100022.78;;;21.63;58.97
3544;BME280;1786;52.870;9.578;2023-08-08T04:08:26;100028.03;;;21.56;59.17
3544;BME280;1786;52.870;9.578;2023-08-08T04:10:52;100019.56;;;21.44;59.46
3544;BME280;1786;52.870;9.578;2023-08-08T04:13:20;100018.03;;;21.50;59.76
3544;BME280;1786;52.870;9.578;2023-08-08T04:15:47;100018.91;;;21.80;58.81
3544;BME280;1786;52.870;9.578;2023-08-08T04:18:14;100022.16;;;21.75;58.90
3544;BME280;1786;52.870;9.578;2023-08-08T04:20:41;100013.38;;;21.44;59.46
3544;BME280;1786;52.870;9.578;2023-08-08T04:23:08;100015.09;;;21.13;60.63
3544;BME280;1786;52.870;9.578;2023-08-08T04:25:35;100015.03;;;21.22;60.05
3544;BME280;1786;52.870;9.578;2023-08-08T04:28:02;100013.50;;;21.04;60.93
3544;BME280;1786;52.870;9.578;2023-08-08T04:30:29;100012.63;;;21.27;60.33
3544;BME280;1786;52.870;9.578;2023-08-08T04:32:55;100012.69;;;21.65;59.93
3544;BME280;1786;52.870;9.578;2023-08-08T04:35:22;100017.03;;;21.66;59.58
3544;BME280;1786;52.870;9.578;2023-08-08T04:37:49;100008.53;;;21.39;60.24
3544;BME280;1786;52.870;9.578;2023-08-08T04:40:16;100010.91;;;21.87;59.51
3544;BME280;1786;52.870;9.578;2023-08-08T04:42:43;100012.41;;;22.04;58.65
3544;BME280;1786;52.870;9.578;2023-08-08T04:45:10;100006.09;;;21.97;58.87
3544;BME280;1786;52.870;9.578;2023-08-08T04:47:36;100007.88;;;22.34;58.19
3544;BME280;1786;52.870;9.578;2023-08-08T04:50:03;100009.34;;;21.92;59.28
3544;BME280;1786;52.870;9.578;2023-08-08T04:52:30;99997.84;;;21.83;59.20
3544;BME280;1786;52.870;9.578;2023-08-08T04:54:57;99990.13;;;21.66;60.12
3544;BME280;1786;52.870;9.578;2023-08-08T04:57:24;99996.94;;;22.21;58.41
3544;BME280;1786;52.870;9.578;2023-08-08T04:59:51;99996.19;;;21.97;58.67
3544;BME280;1786;52.870;9.578;2023-08-08T05:02:18;99998.22;;;22.25;58.46
3544;BME280;1786;52.870;9.578;2023-08-08T05:04:45;100003.03;;;22.15;58.62
3544;BME280;1786;52.870;9.578;2023-08-08T05:07:11;99991.63;;;21.98;59.40
3544;BME280;1786;52.870;9.578;2023-08-08T05:09:38;99997.38;;;21.65;60.13
3544;BME280;1786;52.870;9.578;2023-08-08T05:12:06;99989.03;;;22.19;58.76
3544;BME280;1786;52.870;9.578;2023-08-08T05:14:32;99988.09;;;21.30;61.04
3544;BME280;1786;52.870;9.578;2023-08-08T05:17:00;99990.97;;;22.11;59.41
3544;BME280;1786;52.870;9.578;2023-08-08T05:19:27;99990.72;;;22.20;59.24
3544;BME280;1786;52.870;9.578;2023-08-08T05:21:54;99983.75;;;22.26;59.17
3544;BME280;1786;52.870;9.578;2023-08-08T05:24:21;99985.91;;;22.52;58.72
3544;BME280;1786;52.870;9.578;2023-08-08T05:26:47;99993.06;;;22.45;58.17
3544;BME280;1786;52.870;9.578;2023-08-08T05:29:14;99994.03;;;22.37;59.03
3544;BME280;1786;52.870;9.578;2023-08-08T05:31:41;99997.44;;;22.82;57.83
3544;BME280;1786;52.870;9.578;2023-08-08T05:34:08;99991.91;;;22.69;58.60
3544;BME280;1786;52.870;9.578;2023-08-08T05:36:34;100002.56;;;22.77;57.83
3544;BME280;1786;52.870;9.578;2023-08-08T05:39:01;99998.97;;;23.06;57.27
3544;BME280;1786;52.870;9.578;2023-08-08T05:41:28;99994.47;;;22.56;58.48
3544;BME280;1786;52.870;9.578;2023-08-08T05:43:55;99998.81;;;22.57;58.24
3544;BME280;1786;52.870;9.578;2023-08-08T05:46:21;99993.41;;;22.35;59.50
3544;BME280;1786;52.870;9.578;2023-08-08T05:48:48;99993.03;;;23.18;57.61
3544;BME280;1786;52.870;9.578;2023-08-08T05:51:15;99999.28;;;22.82;58.15
3544;BME280;1786;52.870;9.578;2023-08-08T05:53:41;99999.50;;;23.23;57.22
3544;BME280;1786;52.870;9.578;2023-08-08T05:56:09;100004.28;;;23.21;57.65
3544;BME280;1786;52.870;9.578;2023-08-08T05:58:35;100009.81;;;24.39;56.06
3544;BME280;1786;52.870;9.578;2023-08-08T06:01:03;100008.59;;;25.69;52.47
3544;BME280;1786;52.870;9.578;2023-08-08T06:03:36;100019.53;;;27.43;50.14
3544;BME280;1786;52.870;9.578;2023-08-08T06:06:04;100031.16;;;28.67;46.20
3544;BME280;1786;52.870;9.578;2023-08-08T06:08:32;100033.66;;;29.29;45.30
3544;BME280;1786;52.870;9.578;2023-08-08T06:10:59;100040.75;;;29.30;44.78
3544;BME280;1786;52.870;9.578;2023-08-08T06:13:25;100033.06;;;30.33;43.72
3544;BME280;1786;52.870;9.578;2023-08-08T06:15:53;100034.88;;;30.28;43.12
3544;BME280;1786;52.870;9.578;2023-08-08T06:18:20;100037.47;;;30.11;43.71
3544;BME280;1786;52.870;9.578;2023-08-08T06:20:46;100028.59;;;30.04;43.71
3544;BME280;1786;52.870;9.578;2023-08-08T06:23:13;100020.38;;;30.39;42.80
3544;BME280;1786;52.870;9.578;2023-08-08T06:25:42;100021.22;;;30.97;42.50
3544;BME280;1786;52.870;9.578;2023-08-08T06:28:08;100028.66;;;31.30;41.83
3544;BME280;1786;52.870;9.578;2023-08-08T06:30:37;100020.63;;;31.57;40.73
3544;BME280;1786;52.870;9.578;2023-08-08T06:33:04;100025.44;;;32.28;39.49
3544;BME280;1786;52.870;9.578;2023-08-08T06:35:31;100026.63;;;32.32;39.59
3544;BME280;1786;52.870;9.578;2023-08-08T06:37:57;100028.59;;;30.68;41.48
3544;BME280;1786;52.870;9.578;2023-08-08T06:40:24;100021.09;;;30.23;42.50
3544;BME280;1786;52.870;9.578;2023-08-08T06:43:10;100014.03;;;29.98;43.07
3544;BME280;1786;52.870;9.578;2023-08-08T06:45:55;100013.09;;;29.33;43.83
3544;BME280;1786;52.870;9.578;2023-08-08T06:48:23;100016.16;;;28.65;44.98
3544;BME280;1786;52.870;9.578;2023-08-08T06:50:49;100004.84;;;27.94;46.10
3544;BME280;1786;52.870;9.578;2023-08-08T06:53:17;100005.19;;;28.23;45.77
3544;BME280;1786;52.870;9.578;2023-08-08T06:55:44;100001.56;;;27.92;46.01
3544;BME280;1786;52.870;9.578;2023-08-08T06:58:11;99995.84;;;27.75;47.16
3544;BME280;1786;52.870;9.578;2023-08-08T07:00:38;99987.16;;;27.67;46.91
3544;BME280;1786;52.870;9.578;2023-08-08T07:03:05;99991.38;;;28.06;46.61
3544;BME280;1786;52.870;9.578;2023-08-08T07:05:32;100001.25;;;28.56;45.68
3544;BME280;1786;52.870;9.578;2023-08-08T07:07:59;99991.28;;;28.31;45.27
3544;BME280;1786;52.870;9.578;2023-08-08T07:10:27;99988.09;;;28.34;46.01
3544;BME280;1786;52.870;9.578;2023-08-08T07:12:54;99993.69;;;27.84;45.69
3544;BME280;1786;52.870;9.578;2023-08-08T07:15:21;99986.09;;;26.92;47.25
3544;BME280;1786;52.870;9.578;2023-08-08T07:17:48;99991.53;;;27.24;47.57
3544;BME280;1786;52.870;9.578;2023-08-08T07:20:14;99982.63;;;26.79;48.18
3544;BME280;1786;52.870;9.578;2023-08-08T07:22:42;99987.25;;;26.26;49.16
3544;BME280;1786;52.870;9.578;2023-08-08T07:25:08;99977.25;;;26.72;49.58
3544;BME280;1786;52.870;9.578;2023-08-08T07:27:35;99977.50;;;27.71;48.62
3544;BME280;1786;52.870;9.578;2023-08-08T07:30:02;99986.44;;;28.52;46.05
3544;BME280;1786;52.870;9.578;2023-08-08T07:32:30;99982.81;;;28.58;45.14
3544;BME280;1786;52.870;9.578;2023-08-08T07:34:59;99985.50;;;29.18;44.40
3544;BME280;1786;52.870;9.578;2023-08-08T07:37:29;99976.13;;;29.14;43.52
3544;BME280;1786;52.870;9.578;2023-08-08T07:39:55;99981.50;;;28.90;43.91
3544;BME280;1786;52.870;9.578;2023-08-08T07:42:22;99978.28;;;28.15;45.19
3544;BME280;1786;52.870;9.578;2023-08-08T07:44:48;99979.41;;;27.27;46.99
3544;BME280;1786;52.870;9.578;2023-08-08T07:47:15;99960.00;;;27.16;47.54
3544;BME280;1786;52.870;9.578;2023-08-08T07:49:42;99964.56;;;26.97;48.01
3544;BME280;1786;52.870;9.578;2023-08-08T07:52:09;99956.31;;;26.47;48.50
3544;BME280;1786;52.870;9.578;2023-08-08T07:54:35;99955.91;;;26.44;48.23
3544;BME280;1786;52.870;9.578;2023-08-08T07:57:02;99956.84;;;26.69;47.38
3544;BME280;1786;52.870;9.578;2023-08-08T07:59:30;99957.88;;;26.68;47.83
3544;BME280;1786;52.870;9.578;2023-08-08T08:01:57;99948.44;;;25.87;49.10
3544;BME280;1786;52.870;9.578;2023-08-08T08:04:24;99957.44;;;25.41;48.79
3544;BME280;1786;52.870;9.578;2023-08-08T08:06:51;99954.72;;;25.68;50.16
3544;BME280;1786;52.870;9.578;2023-08-08T08:09:18;99946.28;;;27.18;48.43
3544;BME280;1786;52.870;9.578;2023-08-08T08:11:45;99953.06;;;27.02;45.79
3544;BME280;1786;52.870;9.578;2023-08-08T08:14:12;99948.34;;;26.91;45.88
3544;BME280;1786;52.870;9.578;2023-08-08T08:16:39;99946.91;;;27.13;45.49
3544;BME280;1786;52.870;9.578;2023-08-08T08:19:05;99955.91;;;27.82;45.54
3544;BME280;1786;52.870;9.578;2023-08-08T08:21:32;99958.22;;;28.53;44.51
3544;BME280;1786;52.870;9.578;2023-08-08T08:24:00;99952.09;;;28.69;43.72
3544;BME280;1786;52.870;9.578;2023-08-08T08:26:26;99949.38;;;28.69;42.90
3544;BME280;1786;52.870;9.578;2023-08-08T08:28:54;99945.41;;;28.04;43.97
3544;BME280;1786;52.870;9.578;2023-08-08T08:31:21;99953.84;;;27.78;44.06
3544;BME280;1786;52.870;9.578;2023-08-08T08:33:48;99937.50;;;27.41;44.62
3544;BME280;1786;52.870;9.578;2023-08-08T08:36:15;99945.84;;;28.68;43.82
3544;BME280;1786;52.870;9.578;2023-08-08T08:38:42;99934.25;;;29.15;42.13
3544;BME280;1786;52.870;9.578;2023-08-08T08:41:11;99933.47;;;28.84;42.84
3544;BME280;1786;52.870;9.578;2023-08-08T08:43:39;99924.16;;;28.50;42.59
3544;BME280;1786;52.870;9.578;2023-08-08T08:46:07;99928.53;;;28.02;42.67
3544;BME280;1786;52.870;9.578;2023-08-08T08:48:35;99927.31;;;28.47;43.38
3544;BME280;1786;52.870;9.578;2023-08-08T08:51:02;99930.47;;;27.33;44.72
3544;BME280;1786;52.870;9.578;2023-08-08T08:53:30;99939.56;;;27.64;43.73
3544;BME280;1786;52.870;9.578;2023-08-08T08:55:57;99936.34;;;27.05;44.04
3544;BME280;1786;52.870;9.578;2023-08-08T08:58:24;99928.50;;;26.65;44.81
3544;BME280;1786;52.870;9.578;2023-08-08T09:00:51;99932.66;;;26.68;45.05
3544;BME280;1786;52.870;9.578;2023-08-08T09:03:19;99937.66;;;26.96;45.50
3544;BME280;1786;52.870;9.578;2023-08-08T09:05:47;99937.94;;;27.19;45.24
3544;BME280;1786;52.870;9.578;2023-08-08T09:08:14;99936.13;;;28.12;45.44
3544;BME280;1786;52.870;9.578;2023-08-08T09:10:41;99939.97;;;28.95;43.78
3544;BME280;1786;52.870;9.578;2023-08-08T09:13:08;99940.66;;;29.68;42.02
3544;BME280;1786;52.870;9.578;2023-08-08T09:15:35;99943.44;;;28.90;42.26
3544;BME280;1786;52.870;9.578;2023-08-08T09:18:01;99945.41;;;28.95;42.62
3544;BME280;1786;52.870;9.578;2023-08-08T09:20:28;99940.53;;;27.51;44.44
3544;BME280;1786;52.870;9.578;2023-08-08T09:22:56;99946.38;;;27.92;44.13
3544;BME280;1786;52.870;9.578;2023-08-08T09:25:24;99939.72;;;27.69;44.34
3544;BME280;1786;52.870;9.578;2023-08-08T09:27:51;99940.88;;;28.17;43.16
3544;BME280;1786;52.870;9.578;2023-08-08T09:30:20;99933.38;;;28.31;43.19
3544;BME280;1786;52.870;9.578;2023-08-08T09:32:47;99940.53;;;27.95;43.66
3544;BME280;1786;52.870;9.578;2023-08-08T09:35:14;99931.69;;;27.99;43.29
3544;BME280;1786;52.870;9.578;2023-08-08T09:37:41;99933.06;;;28.39;43.68
3544;BME280;1786;52.870;9.578;2023-08-08T09:40:08;99911.25;;;28.99;43.25
3544;BME280;1786;52.870;9.578;2023-08-08T09:42:40;99926.28;;;29.61;41.99
3544;BME280;1786;52.870;9.578;2023-08-08T09:45:08;99930.16;;;30.00;41.33
3544;BME280;1786;52.870;9.578;2023-08-08T09:47:35;99934.94;;;31.08;40.05
3544;BME280;1786;52.870;9.578;2023-08-08T09:50:03;99916.25;;;29.38;39.85
3544;BME280;1786;52.870;9.578;2023-08-08T09:52:34;99918.88;;;29.09;39.92
3544;BME280;1786;52.870;9.578;2023-08-08T09:55:02;99925.25;;;29.73;40.62
3544;BME280;1786;52.870;9.578;2023-08-08T09:57:29;99926.34;;;30.25;39.46
3544;BME280;1786;52.870;9.578;2023-08-08T09:59:57;99917.72;;;30.45;37.75
3544;BME280;1786;52.870;9.578;2023-08-08T10:02:24;99926.03;;;30.38;38.56
3544;BME280;1786;52.870;9.578;2023-08-08T10:04:52;99920.00;;;31.32;37.85
3544;BME280;1786;52.870;9.578;2023-08-08T10:07:19;99921.50;;;31.40;37.47
3544;BME280;1786;52.870;9.578;2023-08-08T10:09:46;99929.59;;;30.84;37.18
3544;BME280;1786;52.870;9.578;2023-08-08T10:12:13;99927.16;;;29.73;38.22
3544;BME280;1786;52.870;9.578;2023-08-08T10:14:42;99919.09;;;29.07;38.42
3544;BME280;1786;52.870;9.578;2023-08-08T10:17:14;99924.22;;;28.43;39.51
3544;BME280;1786;52.870;9.578;2023-08-08T10:19:54;99912.41;;;28.80;40.60
3544;BME280;1786;52.870;9.578;2023-08-08T10:22:22;99909.94;;;29.02;40.60
3544;BME280;1786;52.870;9.578;2023-08-08T10:24:54;99913.28;;;29.04;40.59
3544;BME280;1786;52.870;9.578;2023-08-08T10:27:31;99911.84;;;28.47;41.12
3544;BME280;1786;52.870;9.578;2023-08-08T10:30:03;99908.19;;;28.96;40.46
3544;BME280;1786;52.870;9.578;2023-08-08T10:32:38;99905.16;;;29.51;40.44
3544;BME280;1786;52.870;9.578;2023-08-08T10:35:06;99909.75;;;29.50;39.30
3544;BME280;1786;52.870;9.578;2023-08-08T10:37:35;99900.31;;;29.41;39.03
3544;BME280;1786;52.870;9.578;2023-08-08T10:40:02;99910.56;;;29.86;38.89
3544;BME280;1786;52.870;9.578;2023-08-08T10:42:40;99907.03;;;29.39;39.42
3544;BME280;1786;52.870;9.578;2023-08-08T10:45:11;99899.56;;;29.69;38.72
3544;BME280;1786;52.870;9.578;2023-08-08T10:47:41;99901.31;;;30.16;38.72
3544;BME280;1786;52.870;9.578;2023-08-08T10:50:13;99897.38;;;30.35;39.30
3544;BME280;1786;52.870;9.578;2023-08-08T10:55:41;99901.19;;;30.51;37.81
3544;BME280;1786;52.870;9.578;2023-08-08T10:58:12;99902.63;;;30.13;38.49
3544;BME280;1786;52.870;9.578;2023-08-08T11:00:40;99901.00;;;29.72;38.89
3544;BME280;1786;52.870;9.578;2023-08-08T11:03:07;99904.03;;;28.81;40.00
3544;BME280;1786;52.870;9.578;2023-08-08T11:05:36;99896.84;;;28.26;40.10
3544;BME280;1786;52.870;9.578;2023-08-08T11:08:05;99891.75;;;28.18;41.10
3544;BME280;1786;52.870;9.578;2023-08-08T11:10:36;99886.34;;;28.48;41.25
3544;BME280;1786;52.870;9.578;2023-08-08T11:13:05;99882.66;;;29.32;40.59
3544;BME280;1786;52.870;9.578;2023-08-08T11:15:33;99891.28;;;29.64;39.39
3544;BME280;1786;52.870;9.578;2023-08-08T11:18:01;99887.34;;;29.60;39.00
3544;BME280;1786;52.870;9.578;2023-08-08T11:20:31;99889.28;;;29.71;38.71
3544;BME280;1786;52.870;9.578;2023-08-08T11:22:58;99882.72;;;29.84;39.23
3544;BME280;1786;52.870;9.578;2023-08-08T11:25:26;99878.22;;;29.78;38.55
3544;BME280;1786;52.870;9.578;2023-08-08T11:27:54;99880.16;;;30.06;39.35
3544;BME280;1786;52.870;9.578;2023-08-08T11:30:22;99882.16;;;30.11;38.39
3544;BME280;1786;52.870;9.578;2023-08-08T11:32:50;99881.31;;;29.58;38.80
3544;BME280;1786;52.870;9.578;2023-08-08T11:35:24;99887.78;;;29.28;39.38
3544;BME280;1786;52.870;9.578;2023-08-08T11:37:53;99885.81;;;28.82;39.26
3544;BME280;1786;52.870;9.578;2023-08-08T11:40:22;99886.22;;;29.21;39.23
3544;BME280;1786;52.870;9.578;2023-08-08T11:42:50;99874.22;;;29.57;39.07
3544;BME280;1786;52.870;9.578;2023-08-08T11:45:18;99894.84;;;29.76;39.59
3544;BME280;1786;52.870;9.578;2023-08-08T11:47:52;99886.94;;;28.62;40.37
3544;BME280;1786;52.870;9.578;2023-08-08T11:50:21;99881.28;;;28.64;39.80
3544;BME280;1786;52.870;9.578;2023-08-08T11:52:54;99887.88;;;29.33;39.56
3544;BME280;1786;52.870;9.578;2023-08-08T11:55:27;99898.72;;;28.86;39.49
3544;BME280;1786;52.870;9.578;2023-08-08T11:57:54;99913.09;;;28.75;39.95
3544;BME280;1786;52.870;9.578;2023-08-08T12:00:27;99907.13;;;28.55;39.94
3544;BME280;1786;52.870;9.578;2023-08-08T12:02:55;99911.38;;;28.20;41.05
3544;BME280;1786;52.870;9.578;2023-08-08T12:05:22;99912.81;;;27.68;41.26
3544;BME280;1786;52.870;9.578;2023-08-08T12:07:49;99931.25;;;27.15;42.75
3544;BME280;1786;52.870;9.578;2023-08-08T12:10:20;99929.66;;;27.33;42.64
3544;BME280;1786;52.870;9.578;2023-08-08T12:12:55;99929.03;;;28.11;41.86
3544;BME280;1786;52.870;9.578;2023-08-08T12:15:28;99931.22;;;28.21;42.37
3544;BME280;1786;52.870;9.578;2023-08-08T12:17:57;99927.50;;;29.06;40.38
3544;BME280;1786;52.870;9.578;2023-08-08T12:20:29;99937.56;;;29.29;41.32
3544;BME280;1786;52.870;9.578;2023-08-08T12:22:58;99930.28;;;28.99;41.62
3544;BME280;1786;52.870;9.578;2023-08-08T12:25:25;99928.50;;;28.81;41.68
3544;BME280;1786;52.870;9.578;2023-08-08T12:27:52;99913.50;;;29.02;41.33
3544;BME280;1786;52.870;9.578;2023-08-08T12:30:19;99912.88;;;28.77;41.83
3544;BME280;1786;52.870;9.578;2023-08-08T12:32:45;99910.72;;;29.21;42.50
3544;BME280;1786;52.870;9.578;2023-08-08T12:35:12;99915.69;;;28.40;42.69
3544;BME280;1786;52.870;9.578;2023-08-08T12:37:39;99917.34;;;28.71;41.74
3544;BME280;1786;52.870;9.578;2023-08-08T12:40:06;99913.72;;;28.89;42.18
3544;BME280;1786;52.870;9.578;2023-08-08T12:42:34;99903.28;;;27.77;43.84
3544;BME280;1786;52.870;9.578;2023-08-08T12:45:01;99906.38;;;27.87;43.96
3544;BME280;1786;52.870;9.578;2023-08-08T12:47:28;99900.78;;;28.61;42.79
3544;BME280;1786;52.870;9.578;2023-08-08T12:49:56;99888.66;;;28.45;41.04
3544;BME280;1786;52.870;9.578;2023-08-08T12:52:22;99907.94;;;28.97;40.94
3544;BME280;1786;52.870;9.578;2023-08-08T12:54:51;99889.69;;;28.74;42.67
3544;BME280;1786;52.870;9.578;2023-08-08T12:57:18;99892.28;;;28.69;41.47
3544;BME280;1786;52.870;9.578;2023-08-08T12:59:45;99933.75;;;28.64;41.70
3544;BME280;1786;52.870;9.578;2023-08-08T13:02:12;99949.75;;;27.50;42.38
3544;BME280;1786;52.870;9.578;2023-08-08T13:04:39;99952.44;;;27.32;42.89
3544;BME280;1786;52.870;9.578;2023-08-08T13:07:05;99937.81;;;26.38;44.26
3544;BME280;1786;52.870;9.578;2023-08-08T13:09:33;99935.09;;;25.79;45.45
3544;BME280;1786;52.870;9.578;2023-08-08T13:12:01;99932.34;;;26.06;46.59
3544;BME280;1786;52.870;9.578;2023-08-08T13:14:28;99929.78;;;26.18;46.94
3544;BME280;1786;52.870;9.578;2023-08-08T13:16:55;99933.78;;;27.10;46.47
3544;BME280;1786;52.870;9.578;2023-08-08T13:19:22;99933.88;;;26.72;45.46
3544;BME280;1786;52.870;9.578;2023-08-08T13:21:52;99939.22;;;26.47;45.93
3544;BME280;1786;52.870;9.578;2023-08-08T13:24:19;99954.41;;;26.03;48.61